createdAt,value
2018-12-18T00:00:04.195Z,98254.52
2018-12-18T00:02:31.146Z,98248.91
2018-12-18T00:04:58.100Z,98248.52
2018-12-18T00:07:25.054Z,98245.11
2018-12-18T00:09:52.068Z,98246.02
2018-12-18T00:12:18.993Z,98238.77
2018-12-18T00:14:46.536Z,98244.03
2018-12-18T00:17:13.502Z,98236.25
2018-12-18T00:19:40.480Z,98239.23
2018-12-18T00:22:07.439Z,98250.52
2018-12-18T00:24:34.385Z,98243.19
2018-12-18T00:27:01.354Z,98244.98
2018-12-18T00:29:28.328Z,98247.16
2018-12-18T00:31:55.326Z,98244.71
2018-12-18T00:34:22.293Z,98246.17
2018-12-18T00:36:49.745Z,98240.80
2018-12-18T00:39:16.717Z,98233.98
2018-12-18T00:41:43.868Z,98218.47
2018-12-18T00:44:10.831Z,98230.06
2018-12-18T00:46:37.857Z,98219.67
2018-12-18T00:49:04.823Z,98219.13
2018-12-18T00:51:31.782Z,98212.67
2018-12-18T00:53:58.818Z,98209.28
2018-12-18T00:56:25.798Z,98214.91
2018-12-18T00:58:52.786Z,98207.14
2018-12-18T01:01:19.801Z,98208.01
2018-12-18T01:03:52.570Z,98199.39
2018-12-18T01:06:13.775Z,98192.64
2018-12-18T01:08:40.844Z,98182.77
2018-12-18T01:11:07.843Z,98188.34
2018-12-18T01:13:34.848Z,98191.27
2018-12-18T01:16:03.738Z,98192.09
2018-12-18T01:18:31.171Z,98197.70
2018-12-18T01:20:58.563Z,98194.26
2018-12-18T01:23:26.057Z,98190.96
2018-12-18T01:25:53.449Z,98189.51
2018-12-18T01:28:20.874Z,98187.98
2018-12-18T01:30:48.300Z,98180.16
2018-12-18T01:33:15.892Z,98186.50
2018-12-18T01:35:43.289Z,98189.42
2018-12-18T01:38:10.714Z,98188.98
2018-12-18T01:40:38.176Z,98182.97
2018-12-18T01:43:05.160Z,98174.86
2018-12-18T01:45:32.602Z,98172.58
2018-12-18T01:48:00.016Z,98161.73
2018-12-18T01:50:27.420Z,98168.20
2018-12-18T01:52:55.154Z,98162.98
2018-12-18T01:55:22.543Z,98161.21
2018-12-18T01:57:49.971Z,98163.34
2018-12-18T02:00:17.366Z,98172.41
2018-12-18T02:02:45.000Z,98174.13
2018-12-18T02:05:12.932Z,98172.42
2018-12-18T02:07:40.335Z,98177.18
2018-12-18T02:10:07.759Z,98177.33
2018-12-18T02:12:35.167Z,98173.09
2018-12-18T02:15:03.423Z,98166.73
2018-12-18T02:17:30.878Z,98164.63
2018-12-18T02:19:58.301Z,98161.63
2018-12-18T02:22:25.683Z,98158.58
2018-12-18T02:24:53.071Z,98158.14
2018-12-18T02:27:20.476Z,98156.47
2018-12-18T02:29:47.876Z,98159.96
2018-12-18T02:32:15.278Z,98162.96
2018-12-18T02:34:42.682Z,98151.70
2018-12-18T02:37:10.116Z,98151.75
2018-12-18T02:39:37.524Z,98140.59
2018-12-18T02:42:04.928Z,98134.13
2018-12-18T02:44:32.326Z,98138.86
2018-12-18T02:46:59.741Z,98142.34
2018-12-18T02:49:27.165Z,98145.78
2018-12-18T02:51:54.569Z,98145.45
2018-12-18T02:54:21.991Z,98140.67
2018-12-18T02:56:49.387Z,98148.05
2018-12-18T02:59:16.817Z,98145.98
2018-12-18T03:01:44.263Z,98139.99
2018-12-18T03:04:12.018Z,98138.17
2018-12-18T03:06:39.491Z,98137.02
2018-12-18T03:09:06.911Z,98133.98
2018-12-18T03:11:34.311Z,98133.59
2018-12-18T03:14:01.737Z,98131.83
2018-12-18T03:16:29.128Z,98128.31
2018-12-18T03:18:56.545Z,98131.65
2018-12-18T03:21:24.327Z,98142.84
2018-12-18T03:23:51.725Z,98144.51
2018-12-18T03:26:19.508Z,98137.98
2018-12-18T03:28:47.116Z,98147.89
2018-12-18T03:31:14.531Z,98139.87
2018-12-18T03:33:42.614Z,98133.09
2018-12-18T03:36:10.022Z,98144.58
2018-12-18T03:38:37.661Z,98140.13
2018-12-18T03:41:05.525Z,98139.79
2018-12-18T03:43:32.954Z,98142.77
2018-12-18T03:46:00.355Z,98146.66
2018-12-18T03:48:27.809Z,98140.89
2018-12-18T03:50:56.575Z,98137.45
2018-12-18T03:53:24.002Z,98139.13
2018-12-18T03:55:51.635Z,98139.89
2018-12-18T03:58:19.097Z,98132.89
2018-12-18T04:00:46.529Z,98124.08
2018-12-18T04:03:14.792Z,98127.02
2018-12-18T04:05:42.212Z,98126.91
2018-12-18T04:08:09.881Z,98115.11
2018-12-18T04:10:37.341Z,98114.06
2018-12-18T04:13:04.751Z,98114.34
2018-12-18T04:15:32.355Z,98109.67
2018-12-18T04:17:59.771Z,98117.50
2018-12-18T04:20:27.317Z,98119.09
2018-12-18T04:22:54.718Z,98118.62
2018-12-18T04:25:22.164Z,98122.12
2018-12-18T04:27:49.641Z,98122.14
2018-12-18T04:30:17.061Z,98128.97
2018-12-18T04:32:44.556Z,98126.05
2018-12-18T04:35:12.067Z,98125.66
2018-12-18T04:37:39.546Z,98125.17
2018-12-18T04:40:07.100Z,98124.36
2018-12-18T04:42:34.561Z,98119.67
2018-12-18T04:45:03.061Z,98116.16
2018-12-18T04:47:30.459Z,98124.78
2018-12-18T04:49:57.877Z,98113.94
2018-12-18T04:52:25.281Z,98112.96
2018-12-18T04:54:52.753Z,98115.36
2018-12-18T04:57:20.165Z,98115.67
2018-12-18T04:59:47.602Z,98116.88
2018-12-18T05:02:15.092Z,98113.56
2018-12-18T05:04:50.007Z,98113.02
2018-12-18T05:07:10.245Z,98103.50
2018-12-18T05:09:38.256Z,98095.18
2018-12-18T05:12:06.571Z,98091.77
2018-12-18T05:14:35.072Z,98092.00
2018-12-18T05:17:02.518Z,98100.77
2018-12-18T05:19:29.985Z,98104.00
2018-12-18T05:21:58.093Z,98105.81
2018-12-18T05:24:25.518Z,98107.69
2018-12-18T05:26:52.969Z,98097.23
2018-12-18T05:29:20.409Z,98100.16
2018-12-18T05:31:47.847Z,98115.47
2018-12-18T05:34:15.339Z,98104.89
2018-12-18T05:36:42.819Z,98101.92
2018-12-18T05:39:10.670Z,98088.05
2018-12-18T05:41:38.120Z,98084.56
2018-12-18T05:44:05.527Z,98092.30
2018-12-18T05:46:32.937Z,98088.73
2018-12-18T05:49:00.991Z,98090.08
2018-12-18T05:51:28.397Z,98089.08
2018-12-18T05:53:55.808Z,98080.33
2018-12-18T05:56:23.282Z,98083.68
2018-12-18T05:58:50.721Z,98089.91
2018-12-18T06:01:18.183Z,98109.58
2018-12-18T06:03:45.586Z,98113.91
2018-12-18T06:06:13.585Z,98124.27
2018-12-18T06:08:40.978Z,98127.83
2018-12-18T06:11:08.449Z,98130.45
2018-12-18T06:13:35.871Z,98133.50
2018-12-18T06:16:04.460Z,98135.16
2018-12-18T06:18:31.895Z,98128.56
2018-12-18T06:20:59.297Z,98126.43
2018-12-18T06:23:26.741Z,98121.80
2018-12-18T06:25:54.129Z,98126.22
2018-12-18T06:28:22.051Z,98126.64
2018-12-18T06:30:49.453Z,98121.50
2018-12-18T06:33:16.892Z,98104.50
2018-12-18T06:35:44.407Z,98112.59
2018-12-18T06:38:11.828Z,98109.00
2018-12-18T06:40:39.230Z,98103.33
2018-12-18T06:43:06.699Z,98098.05
2018-12-18T06:45:34.140Z,98103.73
2018-12-18T06:48:01.583Z,98092.62
2018-12-18T06:50:28.998Z,98098.75
2018-12-18T06:52:56.426Z,98099.79
2018-12-18T06:55:23.853Z,98106.75
2018-12-18T06:57:51.333Z,98099.34
2018-12-18T07:00:18.767Z,98100.69
2018-12-18T07:02:46.343Z,98102.50
2018-12-18T07:05:16.822Z,98106.84
2018-12-18T07:07:41.396Z,98103.62
2018-12-18T07:10:08.797Z,98105.79
2018-12-18T07:12:36.974Z,98102.70
2018-12-18T07:15:04.383Z,98104.64
2018-12-18T07:17:32.631Z,98099.59
2018-12-18T07:20:00.058Z,98097.13
2018-12-18T07:22:27.454Z,98089.51
2018-12-18T07:24:54.897Z,98088.14
2018-12-18T07:27:22.307Z,98092.05
2018-12-18T07:29:49.712Z,98101.38
2018-12-18T07:32:17.135Z,98099.30
2018-12-18T07:34:44.529Z,98089.23
2018-12-18T07:37:11.957Z,98093.25
2018-12-18T07:39:39.450Z,98093.33
2018-12-18T07:42:07.085Z,98097.89
2018-12-18T07:44:35.641Z,98095.99
2018-12-18T07:47:03.191Z,98106.90
2018-12-18T07:49:30.607Z,98101.77
2018-12-18T07:51:58.487Z,98101.27
2018-12-18T07:54:26.072Z,98095.80
2018-12-18T07:56:53.478Z,98099.23
2018-12-18T07:59:20.893Z,98096.30
2018-12-18T08:01:48.359Z,98094.25
2018-12-18T08:04:15.761Z,98086.59
2018-12-18T08:06:44.422Z,98096.05
2018-12-18T08:09:11.899Z,98093.95
2018-12-18T08:11:39.326Z,98092.98
2018-12-18T08:14:06.742Z,98092.43
2018-12-18T08:16:34.817Z,98088.59
2018-12-18T08:19:02.260Z,98087.11
2018-12-18T08:21:30.291Z,98078.95
2018-12-18T08:23:57.972Z,98078.53
2018-12-18T08:26:25.518Z,98076.23
2018-12-18T08:28:52.925Z,98086.45
2018-12-18T08:31:20.384Z,98069.18
2018-12-18T08:33:48.607Z,98073.52
2018-12-18T08:36:16.059Z,98076.61
2018-12-18T08:38:43.461Z,98071.90
2018-12-18T08:41:10.969Z,98066.67
2018-12-18T08:43:38.380Z,98068.47
2018-12-18T08:46:10.140Z,98074.04
2018-12-18T08:48:33.207Z,98062.68
2018-12-18T08:51:00.736Z,98064.08
2018-12-18T08:53:28.152Z,98056.47
2018-12-18T08:55:55.552Z,98049.26
2018-12-18T08:58:22.954Z,98055.91
2018-12-18T09:00:50.458Z,98047.81
2018-12-18T09:03:17.913Z,98042.61
2018-12-18T09:05:45.419Z,98040.89
2018-12-18T09:08:12.870Z,98037.70
2018-12-18T09:10:40.345Z,98032.81
2018-12-18T09:13:07.876Z,98033.34
2018-12-18T09:15:40.549Z,98034.51
2018-12-18T09:18:07.566Z,98030.54
2018-12-18T09:20:34.534Z,98032.36
2018-12-18T09:23:01.493Z,98034.58
2018-12-18T09:25:28.441Z,98043.78
2018-12-18T09:27:55.400Z,98033.80
2018-12-18T09:30:22.849Z,98026.25
2018-12-18T09:32:50.280Z,98033.72
2018-12-18T09:35:17.702Z,98025.34
2018-12-18T09:37:45.097Z,98023.27
2018-12-18T09:40:12.549Z,98019.95
2018-12-18T09:42:45.519Z,98017.77
2018-12-18T09:45:12.936Z,98012.14
2018-12-18T09:47:39.892Z,98011.31
2018-12-18T09:50:06.846Z,98006.72
2018-12-18T09:52:33.819Z,98002.31
2018-12-18T09:55:00.788Z,97990.93
2018-12-18T09:57:33.430Z,97985.07
2018-12-18T10:00:00.381Z,97980.73
2018-12-18T10:02:27.338Z,97971.02
2018-12-18T10:04:54.403Z,97963.36
2018-12-18T10:07:21.377Z,97951.67
2018-12-18T10:09:48.410Z,97953.37
2018-12-18T10:12:15.477Z,97939.02
2018-12-18T10:14:42.463Z,97932.95
2018-12-18T10:17:09.423Z,97923.19
2018-12-18T10:19:36.375Z,97917.06
2018-12-18T10:22:03.331Z,97915.04
2018-12-18T10:24:30.286Z,97914.13
2018-12-18T10:26:57.227Z,97906.92
2018-12-18T10:29:24.186Z,97899.13
2018-12-18T10:31:51.182Z,97900.54
2018-12-18T10:34:18.670Z,97893.65
2018-12-18T10:36:45.607Z,97886.27
2018-12-18T10:39:12.764Z,97882.55
2018-12-18T10:41:39.792Z,97878.50
2018-12-18T10:44:07.198Z,97868.08
2018-12-18T10:46:34.680Z,97868.63
2018-12-18T10:49:02.104Z,97862.56
2018-12-18T10:51:29.530Z,97846.94
2018-12-18T10:53:57.033Z,97849.18
2018-12-18T10:56:24.472Z,97844.13
2018-12-18T10:58:51.919Z,97835.41
2018-12-18T11:01:25.283Z,97833.96
2018-12-18T11:03:52.703Z,97830.58
2018-12-18T11:06:20.144Z,97823.70
2018-12-18T11:08:47.631Z,97819.19
2018-12-18T11:11:15.022Z,97824.91
2018-12-18T11:13:42.543Z,97822.25
2018-12-18T11:16:09.936Z,97821.91
2018-12-18T11:18:37.381Z,97820.47
2018-12-18T11:21:04.777Z,97824.95
2018-12-18T11:23:33.396Z,97811.50
2018-12-18T11:26:00.795Z,97816.27
2018-12-18T11:28:28.375Z,97817.44
2018-12-18T11:30:56.153Z,97811.62
2018-12-18T11:33:23.558Z,97812.84
2018-12-18T11:35:51.311Z,97805.32
2018-12-18T11:38:18.784Z,97796.45
2018-12-18T11:40:46.184Z,97803.61
2018-12-18T11:43:13.591Z,97789.24
2018-12-18T11:45:41.005Z,97782.97
2018-12-18T11:48:08.565Z,97784.22
2018-12-18T11:50:35.959Z,97776.66
2018-12-18T11:53:03.397Z,97770.29
2018-12-18T11:55:30.894Z,97752.16
2018-12-18T11:57:58.882Z,97756.67
2018-12-18T12:00:26.369Z,97744.91
2018-12-18T12:02:53.866Z,97744.39
2018-12-18T12:05:21.314Z,97736.27
2018-12-18T12:07:48.747Z,97733.61
2018-12-18T12:10:16.661Z,97729.19
2018-12-18T12:12:44.073Z,97728.30
2018-12-18T12:15:11.508Z,97727.73
2018-12-18T12:17:38.915Z,97717.62
2018-12-18T12:20:06.355Z,97711.73
2018-12-18T12:22:33.765Z,97706.25
2018-12-18T12:25:01.223Z,97704.76
2018-12-18T12:27:33.478Z,97701.67
2018-12-18T12:30:01.247Z,97685.44
2018-12-18T12:32:28.674Z,97683.68
2018-12-18T12:34:56.607Z,97673.89
2018-12-18T12:37:24.069Z,97668.50
2018-12-18T12:39:54.357Z,97671.19
2018-12-18T12:42:21.765Z,97663.68
2018-12-18T12:44:49.194Z,97651.89
2018-12-18T12:47:16.723Z,97650.98
2018-12-18T12:49:44.193Z,97639.69
2018-12-18T12:52:11.592Z,97633.06
2018-12-18T12:54:39.826Z,97635.79
2018-12-18T12:57:08.847Z,97637.38
2018-12-18T12:59:36.423Z,97632.81
2018-12-18T13:02:03.826Z,97629.86
2018-12-18T13:04:31.316Z,97621.83
2018-12-18T13:06:58.825Z,97616.82
2018-12-18T13:09:26.853Z,97627.88
2018-12-18T13:11:54.255Z,97612.95
2018-12-18T13:14:21.770Z,97609.77
2018-12-18T13:16:49.166Z,97605.86
2018-12-18T13:19:16.566Z,97594.59
2018-12-18T13:21:43.987Z,97593.15
2018-12-18T13:24:11.560Z,97596.72
2018-12-18T13:26:38.995Z,97586.94
2018-12-18T13:29:06.493Z,97586.45
2018-12-18T13:31:34.054Z,97601.17
2018-12-18T13:34:02.073Z,97589.37
2018-12-18T13:36:29.039Z,97585.02
2018-12-18T13:38:56.496Z,97591.75
2018-12-18T13:41:23.926Z,97579.88
2018-12-18T13:43:51.350Z,97576.15
2018-12-18T13:46:18.806Z,97574.73
2018-12-18T13:48:46.585Z,97571.36
2018-12-18T13:51:14.010Z,97574.75
2018-12-18T13:53:41.457Z,97577.14
2018-12-18T13:56:08.897Z,97574.06
2018-12-18T13:58:36.376Z,97577.32
2018-12-18T14:01:03.828Z,97574.91
2018-12-18T14:03:31.282Z,97575.06
2018-12-18T14:05:58.676Z,97579.45
2018-12-18T14:08:26.130Z,97577.30
2018-12-18T14:10:53.736Z,97577.92
2018-12-18T14:13:21.120Z,97574.36
2018-12-18T14:15:48.543Z,97575.81
2018-12-18T14:18:15.955Z,97573.96
2018-12-18T14:20:43.367Z,97572.06
2018-12-18T14:23:10.786Z,97560.68
2018-12-18T14:25:38.176Z,97558.77
2018-12-18T14:28:05.674Z,97557.58
2018-12-18T14:30:33.219Z,97557.59
2018-12-18T14:33:00.626Z,97561.11
2018-12-18T14:35:28.042Z,97556.53
2018-12-18T14:37:55.468Z,97552.28
2018-12-18T14:40:22.856Z,97557.36
2018-12-18T14:42:50.269Z,97551.23
2018-12-18T14:45:17.667Z,97546.74
2018-12-18T14:47:45.090Z,97549.13
2018-12-18T14:50:12.490Z,97541.47
2018-12-18T14:52:39.922Z,97542.78
2018-12-18T14:55:07.459Z,97552.76
2018-12-18T14:57:34.890Z,97550.92
2018-12-18T15:00:02.300Z,97556.97
2018-12-18T15:02:30.128Z,97558.48
2018-12-18T15:04:57.535Z,97550.52
2018-12-18T15:07:25.249Z,97547.06
2018-12-18T15:09:53.000Z,97544.59
2018-12-18T15:12:21.129Z,97540.73
2018-12-18T15:14:48.546Z,97534.11
2018-12-18T15:17:15.955Z,97526.28
2018-12-18T15:19:43.380Z,97533.09
2018-12-18T15:22:10.812Z,97535.12
2018-12-18T15:24:38.241Z,97524.84
2018-12-18T15:27:05.681Z,97517.46
2018-12-18T15:29:33.768Z,97524.05
2018-12-18T15:32:01.181Z,97521.59
2018-12-18T15:34:28.654Z,97511.26
2018-12-18T15:36:56.047Z,97504.16
2018-12-18T15:39:23.483Z,97498.58
2018-12-18T15:41:50.871Z,97505.34
2018-12-18T15:44:18.316Z,97495.17
2018-12-18T15:46:45.721Z,97496.84
2018-12-18T15:49:13.294Z,97493.91
2018-12-18T15:51:40.707Z,97496.11
2018-12-18T15:54:08.109Z,97492.89
2018-12-18T15:56:35.500Z,97491.73
2018-12-18T15:59:02.971Z,97493.87
2018-12-18T16:01:30.387Z,97507.45
2018-12-18T16:03:58.680Z,97500.61
2018-12-18T16:06:26.161Z,97511.09
2018-12-18T16:08:53.556Z,97496.20
2018-12-18T16:11:20.945Z,97499.27
2018-12-18T16:13:48.361Z,97504.09
2018-12-18T16:16:15.758Z,97505.83
2018-12-18T16:18:43.241Z,97511.91
2018-12-18T16:21:10.698Z,97509.72
2018-12-18T16:23:38.128Z,97499.13
2018-12-18T16:26:05.572Z,97500.52
2018-12-18T16:28:33.009Z,97496.10
2018-12-18T16:31:00.402Z,97498.02
2018-12-18T16:33:27.872Z,97498.90
2018-12-18T16:35:55.334Z,97497.92
2018-12-18T16:38:22.871Z,97496.61
2018-12-18T16:40:50.307Z,97499.36
2018-12-18T16:43:17.730Z,97497.31
2018-12-18T16:45:45.128Z,97492.85
2018-12-18T16:48:12.559Z,97500.52
2018-12-18T16:50:39.961Z,97498.38
2018-12-18T16:53:07.520Z,97494.28
2018-12-18T16:55:34.934Z,97492.09
2018-12-18T16:58:02.327Z,97492.42
2018-12-18T17:00:29.901Z,97487.64
2018-12-18T17:02:57.321Z,97482.95
2018-12-18T17:05:24.298Z,97484.75
2018-12-18T17:07:51.247Z,97480.80
2018-12-18T17:10:18.197Z,97473.51
2018-12-18T17:12:50.809Z,97474.70
2018-12-18T17:15:17.909Z,97471.41
2018-12-18T17:17:45.321Z,97472.88
2018-12-18T17:20:12.754Z,97489.52
2018-12-18T17:22:40.799Z,97482.86
2018-12-18T17:25:08.201Z,97488.94
2018-12-18T17:27:35.642Z,97478.48
2018-12-18T17:30:03.412Z,97474.83
2018-12-18T17:32:30.427Z,97463.69
2018-12-18T17:34:57.382Z,97467.39
2018-12-18T17:37:24.336Z,97460.23
2018-12-18T17:39:51.807Z,97458.97
2018-12-18T17:42:19.411Z,97461.11
2018-12-18T17:44:46.399Z,97460.41
2018-12-18T17:47:13.350Z,97463.61
2018-12-18T17:49:40.308Z,97465.21
2018-12-18T17:52:07.332Z,97475.88
2018-12-18T17:54:34.352Z,97468.27
2018-12-18T17:57:01.439Z,97461.52
2018-12-18T17:59:28.843Z,97470.54
2018-12-18T18:01:56.339Z,97473.89
2018-12-18T18:04:23.819Z,97469.73
2018-12-18T18:06:51.264Z,97470.04
2018-12-18T18:09:18.719Z,97479.38
2018-12-18T18:11:46.143Z,97486.84
2018-12-18T18:14:13.783Z,97486.67
2018-12-18T18:16:41.217Z,97486.38
2018-12-18T18:19:08.607Z,97481.73
2018-12-18T18:21:36.041Z,97481.97
2018-12-18T18:24:03.707Z,97481.13
2018-12-18T18:26:32.239Z,97479.38
2018-12-18T18:28:59.331Z,97476.36
2018-12-18T18:31:26.719Z,97482.52
2018-12-18T18:33:54.147Z,97486.45
2018-12-18T18:36:21.598Z,97484.65
2018-12-18T18:38:49.790Z,97483.72
2018-12-18T18:41:17.203Z,97485.52
2018-12-18T18:43:44.641Z,97487.00
2018-12-18T18:46:12.718Z,97486.89
2018-12-18T18:48:40.179Z,97487.08
2018-12-18T18:51:07.796Z,97475.72
2018-12-18T18:53:35.746Z,97481.25
2018-12-18T18:56:03.152Z,97478.95
2018-12-18T18:58:30.579Z,97477.20
2018-12-18T19:00:57.981Z,97472.46
2018-12-18T19:03:25.402Z,97471.54
2018-12-18T19:05:52.415Z,97481.02
2018-12-18T19:08:19.388Z,97492.55
2018-12-18T19:10:46.439Z,97491.36
2018-12-18T19:13:13.859Z,97487.59
2018-12-18T19:15:41.272Z,97495.80
2018-12-18T19:18:08.733Z,97501.34
2018-12-18T19:20:36.299Z,97498.02
2018-12-18T19:23:03.720Z,97504.70
2018-12-18T19:25:31.189Z,97501.08
2018-12-18T19:27:58.135Z,97499.20
2018-12-18T19:30:25.104Z,97499.78
2018-12-18T19:32:52.111Z,97496.72
2018-12-18T19:35:19.166Z,97494.28
2018-12-18T19:37:46.261Z,97494.12
2018-12-18T19:40:13.251Z,97488.05
2018-12-18T19:42:40.184Z,97489.92
2018-12-18T19:45:07.132Z,97486.98
2018-12-18T19:47:34.316Z,97482.63
2018-12-18T19:50:01.282Z,97480.69
2018-12-18T19:52:28.720Z,97483.02
2018-12-18T19:54:55.672Z,97477.56
2018-12-18T19:57:22.611Z,97474.34
2018-12-18T19:59:49.622Z,97475.58
2018-12-18T20:02:17.048Z,97477.78
2018-12-18T20:04:44.454Z,97474.34
2018-12-18T20:07:12.711Z,97477.22
2018-12-18T20:09:40.308Z,97466.91
2018-12-18T20:12:08.990Z,97455.27
2018-12-18T20:14:35.954Z,97459.19
2018-12-18T20:17:03.376Z,97469.45
2018-12-18T20:19:30.871Z,97461.44
2018-12-18T20:21:59.076Z,97456.09
2018-12-18T20:24:27.759Z,97461.36
2018-12-18T20:26:55.332Z,97469.95
2018-12-18T20:29:22.806Z,97468.70
2018-12-18T20:31:50.206Z,97483.36
2018-12-18T20:36:51.458Z,97480.69
2018-12-18T20:39:19.745Z,97470.98
2018-12-18T20:41:46.718Z,97467.77
2018-12-18T20:44:13.650Z,97468.00
2018-12-18T20:46:40.602Z,97467.77
2018-12-18T20:49:08.569Z,97473.12
2018-12-18T20:51:35.492Z,97463.35
2018-12-18T20:54:02.439Z,97479.08
2018-12-18T20:56:29.487Z,97483.64
2018-12-18T20:58:56.947Z,97484.95
2018-12-18T21:01:24.676Z,97480.42
2018-12-18T21:03:52.161Z,97485.65
2018-12-18T21:06:19.578Z,97481.30
2018-12-18T21:08:46.983Z,97481.94
2018-12-18T21:11:14.433Z,97484.88
2018-12-18T21:13:41.898Z,97490.49
2018-12-18T21:16:09.359Z,97487.30
2018-12-18T21:18:36.785Z,97497.68
2018-12-18T21:21:04.173Z,97491.23
2018-12-18T21:23:31.597Z,97499.08
2018-12-18T21:25:59.003Z,97490.77
2018-12-18T21:28:26.419Z,97492.94
2018-12-18T21:30:53.413Z,97488.91
2018-12-18T21:33:20.351Z,97497.53
2018-12-18T21:35:47.781Z,97496.41
2018-12-18T21:38:14.768Z,97494.94
2018-12-18T21:40:42.942Z,97487.15
2018-12-18T21:43:10.402Z,97489.78
2018-12-18T21:45:37.852Z,97501.16
2018-12-18T21:48:05.291Z,97480.22
2018-12-18T21:52:59.885Z,97482.58
2018-12-18T21:55:27.292Z,97474.80
2018-12-18T21:57:54.695Z,97486.28
2018-12-18T22:00:22.106Z,97486.51
2018-12-18T22:02:49.632Z,97475.45
2018-12-18T22:05:17.038Z,97460.77
2018-12-18T22:07:44.508Z,97465.56
2018-12-18T22:10:11.469Z,97457.02
2018-12-18T22:12:38.621Z,97461.06
2018-12-18T22:15:06.031Z,97450.90
2018-12-18T22:17:33.445Z,97453.46
2018-12-18T22:20:00.872Z,97443.97
2018-12-18T22:22:28.312Z,97470.61
2018-12-18T22:24:55.758Z,97476.64
2018-12-18T22:27:23.177Z,97467.84
2018-12-18T22:29:50.730Z,97464.03
2018-12-18T22:32:19.248Z,97475.98
2018-12-18T22:34:46.331Z,97470.08
2018-12-18T22:37:14.417Z,97454.77
2018-12-18T22:39:40.267Z,97451.98
2018-12-18T22:42:07.704Z,97451.22
2018-12-18T22:44:34.737Z,97445.00
2018-12-18T22:47:01.740Z,97465.98
2018-12-18T22:49:28.689Z,97452.02
2018-12-18T22:51:55.658Z,97452.33
2018-12-18T22:54:23.078Z,97457.59
2018-12-18T22:56:50.479Z,97445.69
2018-12-18T22:59:17.897Z,97433.85
2018-12-18T23:01:45.376Z,97438.73
2018-12-18T23:04:12.815Z,97414.73
2018-12-18T23:06:40.208Z,97427.17
2018-12-18T23:09:07.606Z,97443.81
2018-12-18T23:11:35.774Z,97433.81
2018-12-18T23:14:03.395Z,97431.45
2018-12-18T23:16:30.822Z,97424.88
2018-12-18T23:18:58.285Z,97429.12
2018-12-18T23:21:25.803Z,97422.63
2018-12-18T23:23:53.211Z,97416.14
2018-12-18T23:26:20.649Z,97405.34
2018-12-18T23:28:48.076Z,97398.59
2018-12-18T23:31:15.486Z,97390.73
2018-12-18T23:33:42.908Z,97383.95
2018-12-18T23:36:10.372Z,97386.70
2018-12-18T23:38:37.746Z,97388.19
2018-12-18T23:41:05.203Z,97386.77
2018-12-18T23:43:32.610Z,97386.47
2018-12-18T23:46:00.105Z,97389.02
2018-12-18T23:48:27.543Z,97381.35
2018-12-18T23:50:55.035Z,97385.85
2018-12-18T23:53:22.462Z,97378.34
2018-12-18T23:55:49.851Z,97375.81
2018-12-18T23:58:18.110Z,97368.46
